createdAt,value
2018-07-12T00:01:26.181Z,14.00
2018-07-12T00:03:55.594Z,14.10
2018-07-12T00:08:54.299Z,14.10
2018-07-12T00:11:23.605Z,14.00
2018-07-12T00:13:52.888Z,14.10
2018-07-12T00:16:22.121Z,14.20
2018-07-12T00:18:51.486Z,14.40
2018-07-12T00:21:21.235Z,14.40
2018-07-12T00:23:50.474Z,14.20
2018-07-12T00:26:19.821Z,14.20
2018-07-12T00:28:49.359Z,14.40
2018-07-12T00:31:18.688Z,14.30
2018-07-12T00:33:48.009Z,14.20
2018-07-12T00:36:17.405Z,14.00
2018-07-12T00:38:46.743Z,13.80
2018-07-12T00:41:16.635Z,13.90
2018-07-12T00:43:45.998Z,13.90
2018-07-12T00:46:15.253Z,14.00
2018-07-12T00:48:44.657Z,14.00
2018-07-12T00:51:13.980Z,13.90
2018-07-12T00:53:43.293Z,14.00
2018-07-12T00:56:12.745Z,14.20
2018-07-12T00:58:42.057Z,14.50
2018-07-12T01:01:11.336Z,14.70
2018-07-12T01:03:40.717Z,14.80
2018-07-12T01:08:39.326Z,14.50
2018-07-12T01:11:08.640Z,14.30
2018-07-12T01:13:37.936Z,14.40
2018-07-12T01:16:07.200Z,14.40
2018-07-12T01:18:36.893Z,14.20
2018-07-12T01:21:06.185Z,13.80
2018-07-12T01:23:35.518Z,13.30
2018-07-12T01:26:05.337Z,13.30
2018-07-12T01:28:34.689Z,13.40
2018-07-12T01:31:03.965Z,13.40
2018-07-12T01:33:33.258Z,13.10
2018-07-12T01:36:02.527Z,13.00
2018-07-12T01:38:31.835Z,13.20
2018-07-12T01:41:01.209Z,13.20
2018-07-12T01:43:30.533Z,13.40
2018-07-12T01:45:59.802Z,13.70
2018-07-12T01:48:29.198Z,14.00
2018-07-12T01:50:58.504Z,14.10
2018-07-12T01:53:27.779Z,14.20
2018-07-12T01:55:57.091Z,14.00
2018-07-12T01:58:26.397Z,13.40
2018-07-12T02:00:55.647Z,13.20
2018-07-12T02:03:24.957Z,13.70
2018-07-12T02:05:54.253Z,13.80
2018-07-12T02:08:23.500Z,13.70
2018-07-12T02:10:52.816Z,13.40
2018-07-12T02:13:22.113Z,13.40
2018-07-12T02:15:51.383Z,13.20
2018-07-12T02:18:20.677Z,13.30
2018-07-12T02:20:49.962Z,13.50
2018-07-12T02:23:19.260Z,13.70
2018-07-12T02:25:48.644Z,13.70
2018-07-12T02:28:17.988Z,13.00
2018-07-12T02:30:47.549Z,12.80
2018-07-12T02:33:17.200Z,12.90
2018-07-12T02:35:46.522Z,13.20
2018-07-12T02:38:16.529Z,13.40
2018-07-12T02:40:45.819Z,13.30
2018-07-12T02:43:15.242Z,12.80
2018-07-12T02:48:14.021Z,13.20
2018-07-12T02:50:43.287Z,13.10
2018-07-12T02:53:12.557Z,13.00
2018-07-12T02:55:41.902Z,13.10
2018-07-12T02:58:11.453Z,12.90
2018-07-12T03:00:40.782Z,12.70
2018-07-12T03:03:10.102Z,12.60
2018-07-12T03:05:39.402Z,12.40
2018-07-12T03:08:08.658Z,12.40
2018-07-12T03:13:07.437Z,12.90
2018-07-12T03:15:36.748Z,13.00
2018-07-12T03:18:06.088Z,12.90
2018-07-12T03:20:35.962Z,12.90
2018-07-12T03:23:05.759Z,12.90
2018-07-12T03:25:35.592Z,13.10
2018-07-12T03:28:04.835Z,13.00
2018-07-12T03:30:34.101Z,12.30
2018-07-12T03:33:03.426Z,12.00
2018-07-12T03:35:32.740Z,12.00
2018-07-12T03:38:02.024Z,12.30
2018-07-12T03:40:31.428Z,12.40
2018-07-12T03:43:00.716Z,12.40
2018-07-12T03:45:30.372Z,12.50
2018-07-12T03:47:59.631Z,12.30
2018-07-12T03:50:28.902Z,12.40
2018-07-12T03:52:58.305Z,12.20
2018-07-12T03:55:27.641Z,12.30
2018-07-12T03:57:56.914Z,12.20
2018-07-12T04:00:26.190Z,12.00
2018-07-12T04:02:55.576Z,12.20
2018-07-12T04:05:25.198Z,12.40
2018-07-12T04:07:54.502Z,12.70
2018-07-12T04:10:23.972Z,12.90
2018-07-12T04:12:53.585Z,12.70
2018-07-12T04:15:22.882Z,12.30
2018-07-12T04:17:52.202Z,12.40
2018-07-12T04:20:21.817Z,12.30
2018-07-12T04:22:51.079Z,12.40
2018-07-12T04:25:20.388Z,12.40
2018-07-12T04:27:49.686Z,12.40
2018-07-12T04:30:18.934Z,12.70
2018-07-12T04:32:48.227Z,12.90
2018-07-12T04:35:17.457Z,13.10
2018-07-12T04:40:16.149Z,13.20
2018-07-12T04:42:45.440Z,13.10
2018-07-12T04:45:14.746Z,13.10
2018-07-12T04:47:44.065Z,13.20
2018-07-12T04:50:13.396Z,13.30
2018-07-12T04:55:12.117Z,12.60
2018-07-12T04:57:41.446Z,13.00
2018-07-12T05:00:11.177Z,13.10
2018-07-12T05:05:09.850Z,13.30
2018-07-12T05:07:39.457Z,13.40
2018-07-12T05:10:08.802Z,13.10
2018-07-12T05:12:38.057Z,13.10
2018-07-12T05:15:07.374Z,13.20
2018-07-12T05:17:36.775Z,13.50
2018-07-12T05:20:06.155Z,13.70
2018-07-12T05:22:35.702Z,13.40
2018-07-12T05:25:05.048Z,13.30
2018-07-12T05:30:04.204Z,13.60
2018-07-12T05:32:33.543Z,13.50
2018-07-12T05:35:02.797Z,13.60
2018-07-12T05:37:34.277Z,13.50
2018-07-12T05:40:05.821Z,13.80
2018-07-12T05:42:37.368Z,13.80
2018-07-12T05:45:09.064Z,13.60
2018-07-12T05:47:40.512Z,13.70
2018-07-12T05:50:12.294Z,13.80
2018-07-12T05:52:44.073Z,13.70
2018-07-12T05:55:15.773Z,13.90
2018-07-12T05:57:47.517Z,14.00
2018-07-12T06:00:19.403Z,14.20
2018-07-12T06:02:51.187Z,14.10
2018-07-12T06:05:23.221Z,14.20
2018-07-12T06:08:02.058Z,14.20
2018-07-12T06:10:33.905Z,14.30
2018-07-12T06:13:05.777Z,14.40
2018-07-12T06:15:37.680Z,14.50
2018-07-12T06:18:09.452Z,14.60
2018-07-12T06:20:41.438Z,14.60
2018-07-12T06:23:13.196Z,14.60
2018-07-12T06:25:44.887Z,14.80
2018-07-12T06:28:16.802Z,14.90
2018-07-12T06:33:19.694Z,14.80
2018-07-12T06:35:51.436Z,14.90
2018-07-12T06:38:23.250Z,15.00
2018-07-12T06:40:55.436Z,15.10
2018-07-12T06:43:27.360Z,15.00
2018-07-12T06:45:59.263Z,15.20
2018-07-12T06:48:31.083Z,15.40
2018-07-12T06:51:02.907Z,15.30
2018-07-12T06:53:34.767Z,15.50
2018-07-12T06:56:06.559Z,15.70
2018-07-12T06:58:38.489Z,15.80
2018-07-12T07:01:10.466Z,15.80
2018-07-12T07:03:42.397Z,15.90
2018-07-12T07:06:14.624Z,16.10
2018-07-12T07:08:47.186Z,16.40
2018-07-12T07:11:18.994Z,16.30
2018-07-12T07:13:51.072Z,16.40
2018-07-12T07:16:22.929Z,16.50
2018-07-12T07:18:55.177Z,16.60
2018-07-12T07:21:27.430Z,16.70
2018-07-12T07:23:59.261Z,16.70
2018-07-12T07:26:31.101Z,17.00
2018-07-12T07:29:02.992Z,17.10
2018-07-12T07:31:34.788Z,17.30
2018-07-12T07:34:06.727Z,17.20
2018-07-12T07:36:38.610Z,17.20
2018-07-12T07:39:11.027Z,17.30
2018-07-12T07:41:42.786Z,17.30
2018-07-12T07:44:14.619Z,17.50
2018-07-12T07:46:46.676Z,17.60
2018-07-12T07:49:19.262Z,17.30
2018-07-12T07:51:51.126Z,17.40
2018-07-12T07:54:23.101Z,17.70
2018-07-12T07:56:54.865Z,17.70
2018-07-12T07:59:27.030Z,17.90
2018-07-12T08:01:58.861Z,18.00
2018-07-12T08:04:30.719Z,18.10
2018-07-12T08:07:02.434Z,18.10
2018-07-12T08:09:34.892Z,18.30
2018-07-12T08:12:07.096Z,18.10
2018-07-12T08:14:38.973Z,18.40
2018-07-12T08:17:10.696Z,18.50
2018-07-12T08:19:42.557Z,18.50
2018-07-12T08:22:14.573Z,18.60
2018-07-12T08:24:46.487Z,18.90
2018-07-12T08:27:18.746Z,18.80
2018-07-12T08:29:50.717Z,18.80
2018-07-12T08:32:22.576Z,19.00
2018-07-12T08:34:54.395Z,19.10
2018-07-12T08:37:26.182Z,19.10
2018-07-12T08:39:58.133Z,19.10
2018-07-12T08:42:29.960Z,19.30
2018-07-12T08:45:01.636Z,19.50
2018-07-12T08:47:33.445Z,19.40
2018-07-12T08:50:05.264Z,19.30
2018-07-12T08:52:37.048Z,19.30
2018-07-12T08:55:09.028Z,19.40
2018-07-12T09:00:12.108Z,19.60
2018-07-12T09:02:44.170Z,19.60
2018-07-12T09:05:16.108Z,19.80
2018-07-12T09:07:47.922Z,19.80
2018-07-12T09:10:19.897Z,19.80
2018-07-12T09:12:51.837Z,20.10
2018-07-12T09:15:24.886Z,20.20
2018-07-12T09:17:57.717Z,20.40
2018-07-12T09:20:29.714Z,20.40
2018-07-12T09:23:01.494Z,20.20
2018-07-12T09:25:33.976Z,20.30
2018-07-12T09:28:05.794Z,20.30
2018-07-12T09:30:37.832Z,20.40
2018-07-12T09:33:09.733Z,20.50
2018-07-12T09:35:41.534Z,20.60
2018-07-12T09:38:35.682Z,20.40
2018-07-12T09:41:07.837Z,20.60
2018-07-12T09:43:40.260Z,20.60
2018-07-12T09:46:12.258Z,21.00
2018-07-12T09:48:48.329Z,21.00
2018-07-12T09:51:20.161Z,21.40
2018-07-12T09:53:51.985Z,21.40
2018-07-12T09:56:28.792Z,21.50
2018-07-12T09:59:00.652Z,21.60
2018-07-12T10:01:37.565Z,21.70
2018-07-12T10:04:09.641Z,21.70
2018-07-12T10:06:46.674Z,21.70
2018-07-12T10:09:23.625Z,22.00
2018-07-12T10:12:00.509Z,21.80
2018-07-12T10:14:37.753Z,22.20
2018-07-12T10:17:17.401Z,22.10
2018-07-12T10:19:49.383Z,22.10
2018-07-12T10:22:21.393Z,22.50
2018-07-12T10:24:54.903Z,22.50
2018-07-12T10:27:27.078Z,22.60
2018-07-12T10:29:59.849Z,22.70
2018-07-12T10:32:31.717Z,22.70
2018-07-12T10:35:03.460Z,22.70
2018-07-12T10:37:35.499Z,22.70
2018-07-12T10:40:07.273Z,22.70
2018-07-12T10:42:39.070Z,22.80
2018-07-12T10:45:10.976Z,23.00
2018-07-12T10:47:42.792Z,22.90
2018-07-12T10:50:14.595Z,23.10
2018-07-12T10:52:46.362Z,23.30
2018-07-12T10:55:18.191Z,23.60
2018-07-12T10:57:50.023Z,23.60
2018-07-12T11:00:22.385Z,24.00
2018-07-12T11:02:54.147Z,23.80
2018-07-12T11:05:26.140Z,23.70
2018-07-12T11:07:58.106Z,24.00
2018-07-12T11:10:29.984Z,24.00
2018-07-12T11:13:19.884Z,24.20
2018-07-12T11:15:51.752Z,24.00
2018-07-12T11:18:23.624Z,24.20
2018-07-12T11:20:55.407Z,24.40
2018-07-12T11:23:27.473Z,24.10
2018-07-12T11:25:59.171Z,24.20
2018-07-12T11:28:31.074Z,24.40
2018-07-12T11:31:03.302Z,24.40
2018-07-12T11:33:39.010Z,24.40
2018-07-12T11:36:11.076Z,24.60
2018-07-12T11:38:44.083Z,24.50
2018-07-12T11:41:16.009Z,24.60
2018-07-12T11:43:47.705Z,24.90
2018-07-12T11:46:19.860Z,24.90
2018-07-12T11:48:52.347Z,24.80
2018-07-12T11:51:24.206Z,25.10
2018-07-12T11:53:56.082Z,25.20
2018-07-12T11:56:27.919Z,25.10
2018-07-12T11:58:59.713Z,25.10
2018-07-12T12:01:31.493Z,25.10
2018-07-12T12:04:03.707Z,25.40
2018-07-12T12:06:36.278Z,25.20
2018-07-12T12:09:08.654Z,25.50
2018-07-12T12:11:40.430Z,25.30
2018-07-12T12:14:12.373Z,25.20
2018-07-12T12:16:44.186Z,25.30
2018-07-12T12:19:16.140Z,25.30
2018-07-12T12:21:48.031Z,25.40
2018-07-12T12:24:19.857Z,25.10
2018-07-12T12:26:51.706Z,25.60
2018-07-12T12:29:24.017Z,25.50
2018-07-12T12:34:27.121Z,25.60
2018-07-12T12:36:59.021Z,25.60
2018-07-12T12:39:30.862Z,25.80
2018-07-12T12:42:02.899Z,25.70
2018-07-12T12:44:34.757Z,25.60
2018-07-12T12:47:06.661Z,26.00
2018-07-12T12:49:38.556Z,26.30
2018-07-12T12:52:10.294Z,26.10
2018-07-12T12:54:42.415Z,25.50
2018-07-12T12:57:14.113Z,25.60
2018-07-12T12:59:46.062Z,25.60
2018-07-12T13:02:18.080Z,25.70
2018-07-12T13:04:50.079Z,26.00
2018-07-12T13:07:21.876Z,25.80
2018-07-12T13:09:53.723Z,25.70
2018-07-12T13:12:25.454Z,26.00
2018-07-12T13:14:58.172Z,25.90
2018-07-12T13:17:29.984Z,26.20
2018-07-12T13:20:01.941Z,26.50
2018-07-12T13:22:34.739Z,26.80
2018-07-12T13:25:07.088Z,26.70
2018-07-12T13:27:39.316Z,26.10
2018-07-12T13:30:11.211Z,26.60
2018-07-12T13:32:43.249Z,26.40
2018-07-12T13:35:15.096Z,26.40
2018-07-12T13:37:46.916Z,26.70
2018-07-12T13:40:18.758Z,26.20
2018-07-12T13:42:50.534Z,26.50
2018-07-12T13:45:22.274Z,26.40
2018-07-12T13:47:54.257Z,26.00
2018-07-12T13:50:26.250Z,26.10
2018-07-12T13:52:58.186Z,26.30
2018-07-12T13:55:30.162Z,26.80
2018-07-12T13:58:01.975Z,26.60
2018-07-12T14:00:33.859Z,26.40
2018-07-12T14:03:05.709Z,26.20
2018-07-12T14:05:37.873Z,26.40
2018-07-12T14:08:09.717Z,26.30
2018-07-12T14:10:41.617Z,26.20
2018-07-12T14:13:13.625Z,26.70
2018-07-12T14:15:45.739Z,26.60
2018-07-12T14:18:17.561Z,26.70
2018-07-12T14:20:49.362Z,26.60
2018-07-12T14:23:21.182Z,26.70
2018-07-12T14:25:53.629Z,26.60
2018-07-12T14:28:25.581Z,26.90
2018-07-12T14:30:57.360Z,26.80
2018-07-12T14:33:29.621Z,26.80
2018-07-12T14:36:01.544Z,26.60
2018-07-12T14:38:33.404Z,26.70
2018-07-12T14:41:05.238Z,26.90
2018-07-12T14:43:37.231Z,26.90
2018-07-12T14:46:09.518Z,26.70
2018-07-12T14:48:41.656Z,26.90
2018-07-12T14:51:13.451Z,27.00
2018-07-12T14:53:45.249Z,27.00
2018-07-12T14:56:17.095Z,27.40
2018-07-12T14:58:48.936Z,27.00
2018-07-12T15:01:20.719Z,27.10
2018-07-12T15:03:52.993Z,27.20
2018-07-12T15:06:24.884Z,26.80
2018-07-12T15:09:00.533Z,26.70
2018-07-12T15:11:32.447Z,27.40
2018-07-12T15:14:04.633Z,27.30
2018-07-12T15:16:36.617Z,27.20
2018-07-12T15:19:08.555Z,26.60
2018-07-12T15:21:40.925Z,27.20
2018-07-12T15:24:12.775Z,27.10
2018-07-12T15:26:44.736Z,26.40
2018-07-12T15:29:16.565Z,26.70
2018-07-12T15:31:48.917Z,26.90
2018-07-12T15:34:21.063Z,27.20
2018-07-12T15:36:53.323Z,26.80
2018-07-12T15:39:25.717Z,26.90
2018-07-12T15:41:57.665Z,26.90
2018-07-12T15:44:29.509Z,26.90
2018-07-12T15:47:01.804Z,26.30
2018-07-12T15:49:33.795Z,26.60
2018-07-12T15:52:05.873Z,26.70
2018-07-12T15:54:37.676Z,26.70
2018-07-12T15:57:09.559Z,26.40
2018-07-12T15:59:42.234Z,26.80
2018-07-12T16:02:14.303Z,26.90
2018-07-12T16:04:46.136Z,26.90
2018-07-12T16:07:18.108Z,26.50
2018-07-12T16:09:50.538Z,27.00
2018-07-12T16:12:22.736Z,26.70
2018-07-12T16:14:54.633Z,26.70
2018-07-12T16:17:26.725Z,26.90
2018-07-12T16:19:59.367Z,27.10
2018-07-12T16:22:31.492Z,26.50
2018-07-12T16:25:03.711Z,26.50
2018-07-12T16:27:35.898Z,26.60
2018-07-12T16:30:08.475Z,26.50
2018-07-12T16:32:40.510Z,25.50
2018-07-12T16:35:12.411Z,25.80
2018-07-12T16:37:44.294Z,25.50
2018-07-12T16:40:16.199Z,24.80
2018-07-12T16:42:48.151Z,24.70
2018-07-12T16:45:20.177Z,24.40
2018-07-12T16:47:52.031Z,24.30
2018-07-12T16:50:23.781Z,24.20
2018-07-12T16:52:55.973Z,24.50
2018-07-12T16:55:27.842Z,24.30
2018-07-12T16:57:59.777Z,24.30
2018-07-12T17:00:31.595Z,24.70
2018-07-12T17:03:03.655Z,25.50
2018-07-12T17:05:35.630Z,26.10
2018-07-12T17:08:07.687Z,25.80
2018-07-12T17:10:39.661Z,26.10
2018-07-12T17:13:11.725Z,25.80
2018-07-12T17:15:44.620Z,26.10
2018-07-12T17:18:16.556Z,25.60
2018-07-12T17:20:48.530Z,25.10
2018-07-12T17:23:20.479Z,25.70
2018-07-12T17:25:52.616Z,24.80
2018-07-12T17:28:24.475Z,24.80
2018-07-12T17:33:27.970Z,24.40
2018-07-12T17:35:59.996Z,23.80
2018-07-12T17:38:31.857Z,23.70
2018-07-12T17:41:03.892Z,23.30
2018-07-12T17:43:35.973Z,23.30
2018-07-12T17:46:08.139Z,23.30
2018-07-12T17:48:39.996Z,23.30
2018-07-12T17:51:11.904Z,22.90
2018-07-12T17:53:43.776Z,23.00
2018-07-12T17:56:15.874Z,23.00
2018-07-12T17:58:47.826Z,23.20
2018-07-12T18:01:19.758Z,23.00
2018-07-12T18:03:51.677Z,22.90
2018-07-12T18:06:23.849Z,22.70
2018-07-12T18:08:56.644Z,22.50
2018-07-12T18:11:28.819Z,22.50
2018-07-12T18:14:00.856Z,22.50
2018-07-12T18:16:32.952Z,22.50
2018-07-12T18:19:05.006Z,22.40
2018-07-12T18:21:37.228Z,22.20
2018-07-12T18:24:09.327Z,22.50
2018-07-12T18:26:41.575Z,22.00
2018-07-12T18:29:13.745Z,21.80
2018-07-12T18:31:45.947Z,21.80
2018-07-12T18:34:18.199Z,21.70
2018-07-12T18:36:50.601Z,21.70
2018-07-12T18:39:22.771Z,21.70
2018-07-12T18:41:55.477Z,21.60
2018-07-12T18:44:27.803Z,21.40
2018-07-12T18:47:00.276Z,21.60
2018-07-12T18:49:32.597Z,21.50
2018-07-12T18:52:05.311Z,21.60
2018-07-12T18:54:37.659Z,21.60
2018-07-12T18:57:10.218Z,21.40
2018-07-12T18:59:42.453Z,21.30
2018-07-12T19:02:14.776Z,21.10
2018-07-12T19:04:46.867Z,21.20
2018-07-12T19:07:18.907Z,21.20
2018-07-12T19:09:50.907Z,21.30
2018-07-12T19:12:23.316Z,21.10
2018-07-12T19:14:55.582Z,21.00
2018-07-12T19:17:27.556Z,21.20
2018-07-12T19:20:00.443Z,20.90
2018-07-12T19:22:32.533Z,20.80
2018-07-12T19:25:04.849Z,20.60
2018-07-12T19:27:37.162Z,20.60
2018-07-12T19:30:09.719Z,20.60
2018-07-12T19:32:43.182Z,20.60
2018-07-12T19:35:15.508Z,20.60
2018-07-12T19:37:47.712Z,20.30
2018-07-12T19:40:20.900Z,20.20
2018-07-12T19:42:54.863Z,20.40
2018-07-12T19:45:28.599Z,20.10
2018-07-12T19:48:00.563Z,20.20
2018-07-12T19:50:32.920Z,20.30
2018-07-12T19:53:05.239Z,20.40
2018-07-12T19:55:37.396Z,20.50
2018-07-12T19:58:09.547Z,20.20
2018-07-12T20:00:41.722Z,19.90
2018-07-12T20:03:14.192Z,20.00
2018-07-12T20:05:46.507Z,19.80
2018-07-12T20:08:19.632Z,19.80
2018-07-12T20:13:23.371Z,19.60
2018-07-12T20:15:55.551Z,19.60
2018-07-12T20:18:27.523Z,19.50
2018-07-12T20:20:59.552Z,19.50
2018-07-12T20:23:31.552Z,19.40
2018-07-12T20:26:03.563Z,19.40
2018-07-12T20:28:36.042Z,19.50
2018-07-12T20:31:09.015Z,19.60
2018-07-12T20:33:41.098Z,19.40
2018-07-12T20:36:14.031Z,19.40
2018-07-12T20:41:18.008Z,19.10
2018-07-12T20:43:50.430Z,19.20
2018-07-12T20:46:22.451Z,19.20
2018-07-12T20:48:54.757Z,19.20
2018-07-12T20:51:26.760Z,19.10
2018-07-12T20:53:59.151Z,19.20
2018-07-12T20:56:30.894Z,19.20
2018-07-12T20:59:03.079Z,19.30
2018-07-12T21:01:35.962Z,19.10
2018-07-12T21:04:08.696Z,19.10
2018-07-12T21:06:40.850Z,19.10
2018-07-12T21:09:13.887Z,18.90
2018-07-12T21:11:46.280Z,18.70
2018-07-12T21:14:18.650Z,18.90
2018-07-12T21:16:50.570Z,18.80
2018-07-12T21:19:22.281Z,18.80
2018-07-12T21:21:54.201Z,18.80
2018-07-12T21:24:26.008Z,18.90
2018-07-12T21:26:57.917Z,18.90
2018-07-12T21:29:29.733Z,18.80
2018-07-12T21:32:01.612Z,18.70
2018-07-12T21:34:33.277Z,18.70
2018-07-12T21:37:05.010Z,18.50
2018-07-12T21:39:36.718Z,18.60
2018-07-12T21:44:39.861Z,18.60
2018-07-12T21:47:11.934Z,18.40
2018-07-12T21:49:44.166Z,18.40
2018-07-12T21:52:15.906Z,18.30
2018-07-12T21:54:47.759Z,18.10
2018-07-12T21:57:19.527Z,18.10
2018-07-12T21:59:51.467Z,18.00
2018-07-12T22:02:23.274Z,17.80
2018-07-12T22:04:55.261Z,17.90
2018-07-12T22:08:35.833Z,18.10
2018-07-12T22:11:08.098Z,17.60
2018-07-12T22:13:39.869Z,17.70
2018-07-12T22:16:11.806Z,17.60
2018-07-12T22:18:43.698Z,17.70
2018-07-12T22:21:15.453Z,17.70
2018-07-12T22:23:47.366Z,17.70
2018-07-12T22:26:19.136Z,17.80
2018-07-12T22:28:51.013Z,17.30
2018-07-12T22:31:22.771Z,17.20
2018-07-12T22:33:54.631Z,17.30
2018-07-12T22:36:26.662Z,17.10
2018-07-12T22:38:58.477Z,17.20
2018-07-12T22:41:30.211Z,17.30
2018-07-12T22:44:02.728Z,17.20
2018-07-12T22:46:34.526Z,17.00
2018-07-12T22:49:06.868Z,17.00
2018-07-12T22:51:38.644Z,17.30
2018-07-12T22:54:10.429Z,17.40
2018-07-12T22:56:42.772Z,17.10
2018-07-12T22:59:14.505Z,16.90
2018-07-12T23:01:46.453Z,16.80
2018-07-12T23:04:18.208Z,16.80
2018-07-12T23:06:49.973Z,17.30
2018-07-12T23:09:21.709Z,17.20
2018-07-12T23:11:53.506Z,17.10
2018-07-12T23:14:25.324Z,16.90
2018-07-12T23:16:57.103Z,16.70
2018-07-12T23:19:29.449Z,16.90
2018-07-12T23:22:01.221Z,16.70
2018-07-12T23:24:33.948Z,16.60
2018-07-12T23:27:05.698Z,16.60
2018-07-12T23:29:37.463Z,16.60
2018-07-12T23:32:09.293Z,16.40
2018-07-12T23:34:41.120Z,16.40
2018-07-12T23:37:12.779Z,16.30
2018-07-12T23:39:44.665Z,16.40
2018-07-12T23:42:16.453Z,16.40
2018-07-12T23:44:48.268Z,16.40
2018-07-12T23:47:20.067Z,16.50
2018-07-12T23:49:51.873Z,16.30
2018-07-12T23:52:23.825Z,16.20
2018-07-12T23:54:55.651Z,16.40
2018-07-12T23:57:27.418Z,16.00
2018-07-12T23:59:59.328Z,15.80
